sensor_id;sensor_type;location;lat;lon;timestamp;P1;durP1;ratioP1;P2;durP2;ratioP2
74900;SDS011;63461;51.416;6.758;2023-07-13T00:00:41;3.83;;;1.40;;
74900;SDS011;63461;51.416;6.758;2023-07-13T00:03:08;6.82;;;1.65;;
74900;SDS011;63461;51.416;6.758;2023-07-13T00:05:34;5.88;;;1.30;;
74900;SDS011;63461;51.416;6.758;2023-07-13T00:08:00;6.30;;;1.55;;
74900;SDS011;63461;51.416;6.758;2023-07-13T00:10:25;4.97;;;1.48;;
74900;SDS011;63461;51.416;6.758;2023-07-13T00:12:51;8.77;;;1.40;;
74900;SDS011;63461;51.416;6.758;2023-07-13T00:15:23;5.68;;;1.02;;
74900;SDS011;63461;51.416;6.758;2023-07-13T00:17:51;8.13;;;1.30;;
74900;SDS011;63461;51.416;6.758;2023-07-13T00:20:18;8.52;;;1.30;;
74900;SDS011;63461;51.416;6.758;2023-07-13T00:22:46;7.50;;;1.40;;
74900;SDS011;63461;51.416;6.758;2023-07-13T00:25:12;7.03;;;1.38;;
74900;SDS011;63461;51.416;6.758;2023-07-13T00:27:38;4.00;;;1.20;;
74900;SDS011;63461;51.416;6.758;2023-07-13T00:42:16;3.55;;;1.35;;
74900;SDS011;63461;51.416;6.758;2023-07-13T00:48:01;4.15;;;1.70;;
74900;SDS011;63461;51.416;6.758;2023-07-13T00:50:53;7.25;;;1.40;;
74900;SDS011;63461;51.416;6.758;2023-07-13T00:53:49;6.32;;;1.60;;
74900;SDS011;63461;51.416;6.758;2023-07-13T00:56:41;6.00;;;1.85;;
74900;SDS011;63461;51.416;6.758;2023-07-13T01:00:00;5.70;;;1.33;;
74900;SDS011;63461;51.416;6.758;2023-07-13T01:03:24;4.38;;;1.38;;
74900;SDS011;63461;51.416;6.758;2023-07-13T01:06:39;5.93;;;1.58;;
74900;SDS011;63461;51.416;6.758;2023-07-13T01:09:58;7.15;;;1.63;;
74900;SDS011;63461;51.416;6.758;2023-07-13T01:13:15;5.38;;;1.38;;
74900;SDS011;63461;51.416;6.758;2023-07-13T01:16:31;8.95;;;1.98;;
74900;SDS011;63461;51.416;6.758;2023-07-13T01:19:49;4.88;;;1.30;;
74900;SDS011;63461;51.416;6.758;2023-07-13T01:23:05;5.63;;;1.30;;
74900;SDS011;63461;51.416;6.758;2023-07-13T01:26:23;5.22;;;1.55;;
74900;SDS011;63461;51.416;6.758;2023-07-13T01:29:39;6.15;;;1.60;;
74900;SDS011;63461;51.416;6.758;2023-07-13T01:32:58;5.15;;;1.60;;
74900;SDS011;63461;51.416;6.758;2023-07-13T01:36:14;6.10;;;1.15;;
74900;SDS011;63461;51.416;6.758;2023-07-13T01:39:31;7.03;;;1.10;;
74900;SDS011;63461;51.416;6.758;2023-07-13T01:42:47;5.53;;;1.25;;
74900;SDS011;63461;51.416;6.758;2023-07-13T01:46:04;6.45;;;1.83;;
74900;SDS011;63461;51.416;6.758;2023-07-13T01:49:20;4.35;;;1.63;;
74900;SDS011;63461;51.416;6.758;2023-07-13T01:52:36;5.85;;;1.38;;
74900;SDS011;63461;51.416;6.758;2023-07-13T01:55:51;4.43;;;1.27;;
74900;SDS011;63461;51.416;6.758;2023-07-13T01:59:08;8.50;;;1.70;;
74900;SDS011;63461;51.416;6.758;2023-07-13T02:02:23;9.85;;;1.67;;
74900;SDS011;63461;51.416;6.758;2023-07-13T02:05:40;5.47;;;1.35;;
74900;SDS011;63461;51.416;6.758;2023-07-13T02:08:56;7.75;;;1.90;;
74900;SDS011;63461;51.416;6.758;2023-07-13T02:12:14;5.78;;;1.20;;
74900;SDS011;63461;51.416;6.758;2023-07-13T02:15:30;7.93;;;1.55;;
74900;SDS011;63461;51.416;6.758;2023-07-13T02:18:45;7.05;;;1.60;;
74900;SDS011;63461;51.416;6.758;2023-07-13T02:22:02;8.07;;;1.60;;
74900;SDS011;63461;51.416;6.758;2023-07-13T02:25:17;7.25;;;1.60;;
74900;SDS011;63461;51.416;6.758;2023-07-13T02:28:34;7.25;;;1.60;;
74900;SDS011;63461;51.416;6.758;2023-07-13T02:31:50;3.78;;;1.30;;
74900;SDS011;63461;51.416;6.758;2023-07-13T02:35:06;5.70;;;1.40;;
74900;SDS011;63461;51.416;6.758;2023-07-13T02:38:23;4.53;;;1.48;;
74900;SDS011;63461;51.416;6.758;2023-07-13T02:41:39;8.00;;;1.60;;
74900;SDS011;63461;51.416;6.758;2023-07-13T02:44:55;5.07;;;1.58;;
74900;SDS011;63461;51.416;6.758;2023-07-13T02:48:12;5.43;;;1.52;;
74900;SDS011;63461;51.416;6.758;2023-07-13T02:51:29;4.90;;;1.63;;
74900;SDS011;63461;51.416;6.758;2023-07-13T02:54:45;6.82;;;1.63;;
74900;SDS011;63461;51.416;6.758;2023-07-13T02:58:01;3.50;;;1.38;;
74900;SDS011;63461;51.416;6.758;2023-07-13T03:01:17;6.30;;;1.40;;
74900;SDS011;63461;51.416;6.758;2023-07-13T08:48:53;7.43;;;2.97;;
74900;SDS011;63461;51.416;6.758;2023-07-13T08:54:03;10.45;;;2.45;;
74900;SDS011;63461;51.416;6.758;2023-07-13T08:56:34;14.40;;;2.50;;
74900;SDS011;63461;51.416;6.758;2023-07-13T08:59:32;6.22;;;1.90;;
74900;SDS011;63461;51.416;6.758;2023-07-13T09:01:56;8.52;;;2.78;;
74900;SDS011;63461;51.416;6.758;2023-07-13T09:07:25;10.48;;;2.75;;
74900;SDS011;63461;51.416;6.758;2023-07-13T09:10:20;7.85;;;2.40;;
74900;SDS011;63461;51.416;6.758;2023-07-13T09:15:26;9.70;;;2.85;;
74900;SDS011;63461;51.416;6.758;2023-07-13T09:18:01;9.52;;;2.38;;
74900;SDS011;63461;51.416;6.758;2023-07-13T09:20:47;9.25;;;2.88;;
74900;SDS011;63461;51.416;6.758;2023-07-13T09:23:16;7.05;;;2.63;;
74900;SDS011;63461;51.416;6.758;2023-07-13T09:25:47;10.15;;;2.90;;
74900;SDS011;63461;51.416;6.758;2023-07-13T09:28:27;12.68;;;3.17;;
74900;SDS011;63461;51.416;6.758;2023-07-13T09:33:44;9.35;;;3.05;;
74900;SDS011;63461;51.416;6.758;2023-07-13T09:36:29;7.30;;;2.67;;
74900;SDS011;63461;51.416;6.758;2023-07-13T09:38:59;11.32;;;2.47;;
74900;SDS011;63461;51.416;6.758;2023-07-13T09:44:31;8.75;;;2.92;;
74900;SDS011;63461;51.416;6.758;2023-07-13T09:47:00;9.20;;;2.70;;
74900;SDS011;63461;51.416;6.758;2023-07-13T09:49:34;9.43;;;2.72;;
74900;SDS011;63461;51.416;6.758;2023-07-13T09:52:09;11.02;;;2.63;;
74900;SDS011;63461;51.416;6.758;2023-07-13T09:54:36;10.40;;;2.65;;
74900;SDS011;63461;51.416;6.758;2023-07-13T09:57:03;8.27;;;2.88;;
74900;SDS011;63461;51.416;6.758;2023-07-13T09:59:40;8.00;;;2.50;;
74900;SDS011;63461;51.416;6.758;2023-07-13T10:02:28;10.73;;;2.63;;
74900;SDS011;63461;51.416;6.758;2023-07-13T10:04:58;12.23;;;3.08;;
74900;SDS011;63461;51.416;6.758;2023-07-13T10:07:26;6.80;;;2.15;;
74900;SDS011;63461;51.416;6.758;2023-07-13T10:09:55;10.23;;;2.20;;
74900;SDS011;63461;51.416;6.758;2023-07-13T10:12:22;10.93;;;2.80;;
74900;SDS011;63461;51.416;6.758;2023-07-13T10:14:50;11.75;;;2.70;;
74900;SDS011;63461;51.416;6.758;2023-07-13T10:17:21;7.82;;;2.47;;
74900;SDS011;63461;51.416;6.758;2023-07-13T10:20:05;7.63;;;2.30;;
74900;SDS011;63461;51.416;6.758;2023-07-13T10:25:21;7.95;;;2.45;;
74900;SDS011;63461;51.416;6.758;2023-07-13T10:30:49;9.88;;;2.33;;
74900;SDS011;63461;51.416;6.758;2023-07-13T10:33:18;9.52;;;2.42;;
74900;SDS011;63461;51.416;6.758;2023-07-13T10:35:43;8.30;;;2.03;;
74900;SDS011;63461;51.416;6.758;2023-07-13T10:38:12;6.20;;;2.20;;
74900;SDS011;63461;51.416;6.758;2023-07-13T10:40:48;7.53;;;2.30;;
74900;SDS011;63461;51.416;6.758;2023-07-13T10:43:31;8.90;;;2.25;;
74900;SDS011;63461;51.416;6.758;2023-07-13T10:45:59;10.93;;;2.70;;
74900;SDS011;63461;51.416;6.758;2023-07-13T10:48:27;6.43;;;2.40;;
74900;SDS011;63461;51.416;6.758;2023-07-13T10:50:54;11.15;;;2.00;;
74900;SDS011;63461;51.416;6.758;2023-07-13T10:53:30;8.98;;;2.13;;
74900;SDS011;63461;51.416;6.758;2023-07-13T11:08:57;7.57;;;2.47;;
74900;SDS011;63461;51.416;6.758;2023-07-13T11:11:42;9.45;;;2.42;;
74900;SDS011;63461;51.416;6.758;2023-07-13T11:16:52;5.18;;;1.95;;
74900;SDS011;63461;51.416;6.758;2023-07-13T11:30:46;6.72;;;1.95;;
74900;SDS011;63461;51.416;6.758;2023-07-13T11:38:18;6.38;;;1.80;;
74900;SDS011;63461;51.416;6.758;2023-07-13T11:40:47;4.65;;;1.75;;
74900;SDS011;63461;51.416;6.758;2023-07-13T11:43:14;8.00;;;2.42;;
74900;SDS011;63461;51.416;6.758;2023-07-13T11:45:41;7.00;;;1.80;;
74900;SDS011;63461;51.416;6.758;2023-07-13T11:51:04;4.88;;;1.83;;
74900;SDS011;63461;51.416;6.758;2023-07-13T11:53:38;5.90;;;2.03;;
74900;SDS011;63461;51.416;6.758;2023-07-13T11:56:10;3.65;;;1.55;;
74900;SDS011;63461;51.416;6.758;2023-07-13T11:58:36;7.05;;;1.95;;
74900;SDS011;63461;51.416;6.758;2023-07-13T12:01:02;10.45;;;1.90;;
74900;SDS011;63461;51.416;6.758;2023-07-13T12:03:32;6.72;;;1.70;;
74900;SDS011;63461;51.416;6.758;2023-07-13T12:06:01;5.95;;;1.67;;
74900;SDS011;63461;51.416;6.758;2023-07-13T12:08:30;4.65;;;1.60;;
74900;SDS011;63461;51.416;6.758;2023-07-13T12:11:04;3.75;;;1.55;;
74900;SDS011;63461;51.416;6.758;2023-07-13T12:13:37;6.78;;;1.70;;
74900;SDS011;63461;51.416;6.758;2023-07-13T12:16:25;3.78;;;1.80;;
74900;SDS011;63461;51.416;6.758;2023-07-13T12:18:54;6.22;;;1.90;;
74900;SDS011;63461;51.416;6.758;2023-07-13T12:21:22;6.25;;;1.80;;
74900;SDS011;63461;51.416;6.758;2023-07-13T12:23:55;8.18;;;2.42;;
74900;SDS011;63461;51.416;6.758;2023-07-13T12:26:20;4.65;;;1.70;;
74900;SDS011;63461;51.416;6.758;2023-07-13T12:28:53;4.53;;;1.58;;
74900;SDS011;63461;51.416;6.758;2023-07-13T12:35:14;6.45;;;2.10;;
74900;SDS011;63461;51.416;6.758;2023-07-13T12:37:50;6.93;;;2.00;;
74900;SDS011;63461;51.416;6.758;2023-07-13T12:40:20;7.03;;;1.65;;
74900;SDS011;63461;51.416;6.758;2023-07-13T12:43:02;6.30;;;2.10;;
74900;SDS011;63461;51.416;6.758;2023-07-13T12:46:02;6.47;;;1.55;;
74900;SDS011;63461;51.416;6.758;2023-07-13T12:49:12;3.47;;;1.38;;
74900;SDS011;63461;51.416;6.758;2023-07-13T12:51:49;5.20;;;1.95;;
74900;SDS011;63461;51.416;6.758;2023-07-13T12:54:19;6.80;;;2.05;;
74900;SDS011;63461;51.416;6.758;2023-07-13T12:56:49;8.20;;;1.60;;
74900;SDS011;63461;51.416;6.758;2023-07-13T12:59:18;5.80;;;1.83;;
74900;SDS011;63461;51.416;6.758;2023-07-13T13:01:46;12.02;;;1.70;;
74900;SDS011;63461;51.416;6.758;2023-07-13T13:04:14;6.70;;;2.05;;
74900;SDS011;63461;51.416;6.758;2023-07-13T13:06:41;9.40;;;1.98;;
74900;SDS011;63461;51.416;6.758;2023-07-13T13:09:12;7.10;;;1.70;;
74900;SDS011;63461;51.416;6.758;2023-07-13T13:11:39;8.63;;;1.58;;
74900;SDS011;63461;51.416;6.758;2023-07-13T13:14:06;7.97;;;1.75;;
74900;SDS011;63461;51.416;6.758;2023-07-13T13:16:34;7.47;;;1.90;;
74900;SDS011;63461;51.416;6.758;2023-07-13T13:19:15;4.57;;;1.60;;
74900;SDS011;63461;51.416;6.758;2023-07-13T13:21:44;9.85;;;1.90;;
74900;SDS011;63461;51.416;6.758;2023-07-13T13:24:15;3.70;;;1.80;;
74900;SDS011;63461;51.416;6.758;2023-07-13T13:26:43;8.32;;;1.70;;
74900;SDS011;63461;51.416;6.758;2023-07-13T13:29:14;3.30;;;1.55;;
74900;SDS011;63461;51.416;6.758;2023-07-13T13:31:41;6.00;;;1.90;;
74900;SDS011;63461;51.416;6.758;2023-07-13T13:34:09;6.60;;;1.70;;
74900;SDS011;63461;51.416;6.758;2023-07-13T13:36:37;8.93;;;1.77;;
74900;SDS011;63461;51.416;6.758;2023-07-13T13:39:16;6.35;;;1.58;;
74900;SDS011;63461;51.416;6.758;2023-07-13T13:41:48;5.93;;;1.23;;
74900;SDS011;63461;51.416;6.758;2023-07-13T13:44:15;4.80;;;1.50;;
74900;SDS011;63461;51.416;6.758;2023-07-13T13:46:43;5.70;;;1.45;;
74900;SDS011;63461;51.416;6.758;2023-07-13T13:49:14;6.43;;;1.20;;
74900;SDS011;63461;51.416;6.758;2023-07-13T13:51:42;6.60;;;1.80;;
74900;SDS011;63461;51.416;6.758;2023-07-13T13:54:12;6.93;;;1.50;;
74900;SDS011;63461;51.416;6.758;2023-07-13T13:56:42;4.68;;;1.55;;
74900;SDS011;63461;51.416;6.758;2023-07-13T13:59:10;2.88;;;1.42;;
74900;SDS011;63461;51.416;6.758;2023-07-13T14:01:36;8.63;;;1.80;;
74900;SDS011;63461;51.416;6.758;2023-07-13T14:04:03;6.82;;;1.77;;
74900;SDS011;63461;51.416;6.758;2023-07-13T14:06:30;7.25;;;1.83;;
74900;SDS011;63461;51.416;6.758;2023-07-13T14:08:56;5.63;;;1.60;;
74900;SDS011;63461;51.416;6.758;2023-07-13T14:11:22;8.40;;;2.00;;
74900;SDS011;63461;51.416;6.758;2023-07-13T14:13:53;8.27;;;2.10;;
74900;SDS011;63461;51.416;6.758;2023-07-13T14:16:22;10.82;;;2.78;;
74900;SDS011;63461;51.416;6.758;2023-07-13T14:18:53;7.47;;;2.58;;
74900;SDS011;63461;51.416;6.758;2023-07-13T14:21:20;8.18;;;2.35;;
74900;SDS011;63461;51.416;6.758;2023-07-13T14:23:47;9.93;;;3.67;;
74900;SDS011;63461;51.416;6.758;2023-07-13T14:26:17;11.07;;;3.10;;
74900;SDS011;63461;51.416;6.758;2023-07-13T14:28:55;8.15;;;2.30;;
74900;SDS011;63461;51.416;6.758;2023-07-13T14:31:23;11.45;;;3.10;;
74900;SDS011;63461;51.416;6.758;2023-07-13T14:33:50;9.00;;;3.85;;
74900;SDS011;63461;51.416;6.758;2023-07-13T14:38:56;10.05;;;2.55;;
74900;SDS011;63461;51.416;6.758;2023-07-13T14:41:24;8.88;;;2.70;;
74900;SDS011;63461;51.416;6.758;2023-07-13T14:43:50;10.98;;;2.60;;
74900;SDS011;63461;51.416;6.758;2023-07-13T14:46:18;9.95;;;2.20;;
74900;SDS011;63461;51.416;6.758;2023-07-13T14:48:58;8.98;;;2.20;;
74900;SDS011;63461;51.416;6.758;2023-07-13T14:51:33;8.25;;;2.53;;
74900;SDS011;63461;51.416;6.758;2023-07-13T14:54:03;8.88;;;2.40;;
74900;SDS011;63461;51.416;6.758;2023-07-13T14:56:30;8.30;;;2.90;;
74900;SDS011;63461;51.416;6.758;2023-07-13T14:58:56;7.60;;;2.30;;
74900;SDS011;63461;51.416;6.758;2023-07-13T15:01:22;9.57;;;2.10;;
74900;SDS011;63461;51.416;6.758;2023-07-13T15:03:50;8.63;;;2.35;;
74900;SDS011;63461;51.416;6.758;2023-07-13T15:06:17;8.43;;;2.25;;
74900;SDS011;63461;51.416;6.758;2023-07-13T15:08:44;4.43;;;2.10;;
74900;SDS011;63461;51.416;6.758;2023-07-13T15:11:11;7.30;;;1.92;;
74900;SDS011;63461;51.416;6.758;2023-07-13T15:13:37;7.38;;;2.22;;
74900;SDS011;63461;51.416;6.758;2023-07-13T15:16:04;6.03;;;1.50;;
74900;SDS011;63461;51.416;6.758;2023-07-13T15:18:40;4.85;;;1.92;;
74900;SDS011;63461;51.416;6.758;2023-07-13T15:21:08;7.85;;;1.98;;
74900;SDS011;63461;51.416;6.758;2023-07-13T15:23:40;6.15;;;1.70;;
74900;SDS011;63461;51.416;6.758;2023-07-13T15:26:08;3.85;;;1.30;;
74900;SDS011;63461;51.416;6.758;2023-07-13T15:28:38;2.50;;;1.48;;
74900;SDS011;63461;51.416;6.758;2023-07-13T15:31:04;5.32;;;1.63;;
74900;SDS011;63461;51.416;6.758;2023-07-13T15:33:44;2.88;;;1.40;;
74900;SDS011;63461;51.416;6.758;2023-07-13T15:36:13;3.20;;;1.33;;
74900;SDS011;63461;51.416;6.758;2023-07-13T15:38:42;4.68;;;1.67;;
74900;SDS011;63461;51.416;6.758;2023-07-13T15:41:14;4.93;;;1.42;;
74900;SDS011;63461;51.416;6.758;2023-07-13T15:43:50;3.40;;;1.40;;
74900;SDS011;63461;51.416;6.758;2023-07-13T15:46:18;4.38;;;1.40;;
74900;SDS011;63461;51.416;6.758;2023-07-13T15:48:47;2.95;;;1.10;;
74900;SDS011;63461;51.416;6.758;2023-07-13T15:51:27;5.55;;;1.65;;
74900;SDS011;63461;51.416;6.758;2023-07-13T15:53:59;4.30;;;1.70;;
74900;SDS011;63461;51.416;6.758;2023-07-13T15:56:35;5.95;;;1.92;;
74900;SDS011;63461;51.416;6.758;2023-07-13T15:59:03;4.13;;;1.55;;
74900;SDS011;63461;51.416;6.758;2023-07-13T16:01:29;6.13;;;1.90;;
74900;SDS011;63461;51.416;6.758;2023-07-13T16:03:56;4.30;;;1.60;;
74900;SDS011;63461;51.416;6.758;2023-07-13T16:06:23;5.35;;;1.70;;
74900;SDS011;63461;51.416;6.758;2023-07-13T16:08:52;3.70;;;1.63;;
74900;SDS011;63461;51.416;6.758;2023-07-13T16:11:22;4.85;;;1.60;;
74900;SDS011;63461;51.416;6.758;2023-07-13T16:13:50;6.65;;;1.70;;
74900;SDS011;63461;51.416;6.758;2023-07-13T16:16:20;5.32;;;1.80;;
74900;SDS011;63461;51.416;6.758;2023-07-13T16:18:53;4.00;;;1.30;;
74900;SDS011;63461;51.416;6.758;2023-07-13T16:21:26;4.95;;;1.80;;
74900;SDS011;63461;51.416;6.758;2023-07-13T16:23:54;5.43;;;1.83;;
74900;SDS011;63461;51.416;6.758;2023-07-13T16:26:23;2.78;;;1.60;;
74900;SDS011;63461;51.416;6.758;2023-07-13T16:29:08;2.45;;;1.40;;
74900;SDS011;63461;51.416;6.758;2023-07-13T16:31:39;3.17;;;1.70;;
74900;SDS011;63461;51.416;6.758;2023-07-13T16:34:05;6.88;;;2.17;;
74900;SDS011;63461;51.416;6.758;2023-07-13T16:36:34;4.70;;;1.77;;
74900;SDS011;63461;51.416;6.758;2023-07-13T16:39:00;4.28;;;2.08;;
74900;SDS011;63461;51.416;6.758;2023-07-13T16:41:29;4.60;;;1.60;;
74900;SDS011;63461;51.416;6.758;2023-07-13T16:43:55;4.07;;;1.75;;
74900;SDS011;63461;51.416;6.758;2023-07-13T16:46:22;8.38;;;1.73;;
74900;SDS011;63461;51.416;6.758;2023-07-13T16:48:49;4.32;;;1.75;;
74900;SDS011;63461;51.416;6.758;2023-07-13T16:51:15;6.00;;;1.85;;
74900;SDS011;63461;51.416;6.758;2023-07-13T16:53:41;5.32;;;1.58;;
74900;SDS011;63461;51.416;6.758;2023-07-13T16:56:13;3.38;;;1.55;;
74900;SDS011;63461;51.416;6.758;2023-07-13T16:58:43;3.50;;;1.60;;
74900;SDS011;63461;51.416;6.758;2023-07-13T17:01:08;4.85;;;1.83;;
74900;SDS011;63461;51.416;6.758;2023-07-13T17:03:35;2.65;;;1.40;;
74900;SDS011;63461;51.416;6.758;2023-07-13T17:06:02;2.92;;;1.35;;
74900;SDS011;63461;51.416;6.758;2023-07-13T17:08:48;3.47;;;1.40;;
74900;SDS011;63461;51.416;6.758;2023-07-13T17:11:19;4.20;;;1.77;;
74900;SDS011;63461;51.416;6.758;2023-07-13T17:13:45;5.72;;;1.60;;
74900;SDS011;63461;51.416;6.758;2023-07-13T17:16:11;4.63;;;1.63;;
74900;SDS011;63461;51.416;6.758;2023-07-13T17:18:37;5.50;;;1.90;;
74900;SDS011;63461;51.416;6.758;2023-07-13T17:21:04;2.28;;;1.45;;
74900;SDS011;63461;51.416;6.758;2023-07-13T17:23:33;3.38;;;1.48;;
74900;SDS011;63461;51.416;6.758;2023-07-13T17:25:59;4.72;;;1.60;;
74900;SDS011;63461;51.416;6.758;2023-07-13T17:28:26;4.75;;;1.60;;
74900;SDS011;63461;51.416;6.758;2023-07-13T17:30:54;5.30;;;1.33;;
74900;SDS011;63461;51.416;6.758;2023-07-13T17:35:52;7.45;;;4.00;;
74900;SDS011;63461;51.416;6.758;2023-07-13T17:38:18;3.25;;;1.98;;
74900;SDS011;63461;51.416;6.758;2023-07-13T17:40:45;3.42;;;1.60;;
74900;SDS011;63461;51.416;6.758;2023-07-13T17:43:11;8.52;;;1.63;;
74900;SDS011;63461;51.416;6.758;2023-07-13T17:45:38;4.18;;;1.73;;
74900;SDS011;63461;51.416;6.758;2023-07-13T17:48:09;2.80;;;1.40;;
74900;SDS011;63461;51.416;6.758;2023-07-13T17:50:37;4.70;;;1.73;;
74900;SDS011;63461;51.416;6.758;2023-07-13T17:53:13;3.97;;;1.52;;
74900;SDS011;63461;51.416;6.758;2023-07-13T17:55:41;3.58;;;1.38;;
74900;SDS011;63461;51.416;6.758;2023-07-13T17:58:07;3.05;;;1.23;;
74900;SDS011;63461;51.416;6.758;2023-07-13T18:00:33;3.80;;;1.50;;
74900;SDS011;63461;51.416;6.758;2023-07-13T18:03:05;2.78;;;1.45;;
74900;SDS011;63461;51.416;6.758;2023-07-13T18:05:39;6.10;;;1.70;;
74900;SDS011;63461;51.416;6.758;2023-07-13T18:08:05;3.17;;;1.60;;
74900;SDS011;63461;51.416;6.758;2023-07-13T18:10:42;3.90;;;1.80;;
74900;SDS011;63461;51.416;6.758;2023-07-13T18:13:08;6.60;;;1.75;;
74900;SDS011;63461;51.416;6.758;2023-07-13T18:15:34;3.53;;;1.90;;
74900;SDS011;63461;51.416;6.758;2023-07-13T18:18:00;5.53;;;1.65;;
74900;SDS011;63461;51.416;6.758;2023-07-13T18:20:31;5.95;;;1.60;;
74900;SDS011;63461;51.416;6.758;2023-07-13T18:23:00;6.13;;;2.05;;
74900;SDS011;63461;51.416;6.758;2023-07-13T18:25:28;3.90;;;1.88;;
74900;SDS011;63461;51.416;6.758;2023-07-13T18:27:54;6.80;;;2.13;;
74900;SDS011;63461;51.416;6.758;2023-07-13T18:30:20;3.45;;;1.75;;
74900;SDS011;63461;51.416;6.758;2023-07-13T18:32:48;4.82;;;1.65;;
74900;SDS011;63461;51.416;6.758;2023-07-13T18:35:31;2.67;;;1.55;;
74900;SDS011;63461;51.416;6.758;2023-07-13T18:37:59;3.25;;;1.60;;
74900;SDS011;63461;51.416;6.758;2023-07-13T18:40:25;6.28;;;1.85;;
74900;SDS011;63461;51.416;6.758;2023-07-13T18:42:52;6.93;;;1.63;;
74900;SDS011;63461;51.416;6.758;2023-07-13T18:45:19;4.28;;;1.90;;
74900;SDS011;63461;51.416;6.758;2023-07-13T18:47:46;3.45;;;1.67;;
74900;SDS011;63461;51.416;6.758;2023-07-13T18:50:18;3.85;;;1.80;;
74900;SDS011;63461;51.416;6.758;2023-07-13T18:52:48;5.80;;;2.00;;
74900;SDS011;63461;51.416;6.758;2023-07-13T18:57:49;4.97;;;2.35;;
74900;SDS011;63461;51.416;6.758;2023-07-13T19:00:24;6.75;;;2.10;;
74900;SDS011;63461;51.416;6.758;2023-07-13T19:02:56;5.53;;;2.08;;
74900;SDS011;63461;51.416;6.758;2023-07-13T19:05:29;5.82;;;1.90;;
74900;SDS011;63461;51.416;6.758;2023-07-13T19:07:57;4.38;;;1.52;;
74900;SDS011;63461;51.416;6.758;2023-07-13T19:10:25;6.07;;;2.05;;
74900;SDS011;63461;51.416;6.758;2023-07-13T19:12:55;3.30;;;1.80;;
74900;SDS011;63461;51.416;6.758;2023-07-13T19:15:25;3.63;;;1.83;;
74900;SDS011;63461;51.416;6.758;2023-07-13T19:17:59;4.63;;;1.92;;
74900;SDS011;63461;51.416;6.758;2023-07-13T19:20:27;5.95;;;2.00;;
74900;SDS011;63461;51.416;6.758;2023-07-13T19:23:07;4.55;;;2.20;;
74900;SDS011;63461;51.416;6.758;2023-07-13T19:25:44;4.32;;;2.30;;
74900;SDS011;63461;51.416;6.758;2023-07-13T19:28:29;7.13;;;2.47;;
74900;SDS011;63461;51.416;6.758;2023-07-13T19:31:17;5.70;;;2.13;;
74900;SDS011;63461;51.416;6.758;2023-07-13T19:33:45;5.65;;;2.22;;
74900;SDS011;63461;51.416;6.758;2023-07-13T19:36:31;3.97;;;1.98;;
74900;SDS011;63461;51.416;6.758;2023-07-13T19:38:59;6.40;;;2.10;;
74900;SDS011;63461;51.416;6.758;2023-07-13T19:41:27;7.30;;;2.60;;
74900;SDS011;63461;51.416;6.758;2023-07-13T19:43:55;10.63;;;4.57;;
74900;SDS011;63461;51.416;6.758;2023-07-13T19:46:35;9.13;;;3.10;;
74900;SDS011;63461;51.416;6.758;2023-07-13T19:49:02;11.32;;;3.83;;
74900;SDS011;63461;51.416;6.758;2023-07-13T19:51:33;8.45;;;3.00;;
74900;SDS011;63461;51.416;6.758;2023-07-13T19:54:14;6.22;;;2.75;;
74900;SDS011;63461;51.416;6.758;2023-07-13T19:56:43;6.68;;;2.40;;
74900;SDS011;63461;51.416;6.758;2023-07-13T19:59:23;6.75;;;2.50;;
74900;SDS011;63461;51.416;6.758;2023-07-13T20:01:52;5.20;;;2.45;;
74900;SDS011;63461;51.416;6.758;2023-07-13T20:04:18;5.55;;;2.30;;
74900;SDS011;63461;51.416;6.758;2023-07-13T20:06:49;5.55;;;2.45;;
74900;SDS011;63461;51.416;6.758;2023-07-13T20:09:23;5.78;;;2.92;;
74900;SDS011;63461;51.416;6.758;2023-07-13T20:11:50;6.38;;;2.53;;
74900;SDS011;63461;51.416;6.758;2023-07-13T20:14:20;7.82;;;2.70;;
74900;SDS011;63461;51.416;6.758;2023-07-13T20:16:50;5.15;;;2.55;;
74900;SDS011;63461;51.416;6.758;2023-07-13T20:19:23;6.30;;;2.72;;
74900;SDS011;63461;51.416;6.758;2023-07-13T20:21:50;7.72;;;2.88;;
74900;SDS011;63461;51.416;6.758;2023-07-13T20:24:18;11.18;;;3.40;;
74900;SDS011;63461;51.416;6.758;2023-07-13T20:26:45;9.45;;;3.00;;
74900;SDS011;63461;51.416;6.758;2023-07-13T20:29:12;6.35;;;2.60;;
74900;SDS011;63461;51.416;6.758;2023-07-13T20:31:42;9.88;;;2.80;;
74900;SDS011;63461;51.416;6.758;2023-07-13T20:34:13;6.63;;;2.60;;
74900;SDS011;63461;51.416;6.758;2023-07-13T20:36:50;6.88;;;2.88;;
74900;SDS011;63461;51.416;6.758;2023-07-13T20:39:18;5.50;;;2.50;;
74900;SDS011;63461;51.416;6.758;2023-07-13T20:41:48;7.72;;;2.78;;
74900;SDS011;63461;51.416;6.758;2023-07-13T20:44:14;8.02;;;2.85;;
74900;SDS011;63461;51.416;6.758;2023-07-13T20:46:42;7.18;;;3.22;;
74900;SDS011;63461;51.416;6.758;2023-07-13T20:49:09;5.97;;;3.00;;
74900;SDS011;63461;51.416;6.758;2023-07-13T20:51:36;7.65;;;2.90;;
74900;SDS011;63461;51.416;6.758;2023-07-13T20:54:03;4.72;;;2.78;;
74900;SDS011;63461;51.416;6.758;2023-07-13T20:56:29;8.18;;;3.30;;
74900;SDS011;63461;51.416;6.758;2023-07-13T20:58:56;8.85;;;2.50;;
74900;SDS011;63461;51.416;6.758;2023-07-13T21:01:28;7.82;;;2.78;;
74900;SDS011;63461;51.416;6.758;2023-07-13T21:03:58;5.80;;;3.10;;
74900;SDS011;63461;51.416;6.758;2023-07-13T21:06:26;6.97;;;2.92;;
74900;SDS011;63461;51.416;6.758;2023-07-13T21:08:54;11.32;;;3.22;;
74900;SDS011;63461;51.416;6.758;2023-07-13T21:11:21;7.82;;;3.20;;
74900;SDS011;63461;51.416;6.758;2023-07-13T21:13:46;8.10;;;2.90;;
74900;SDS011;63461;51.416;6.758;2023-07-13T21:16:19;8.50;;;3.22;;
74900;SDS011;63461;51.416;6.758;2023-07-13T21:18:47;6.13;;;2.78;;
74900;SDS011;63461;51.416;6.758;2023-07-13T21:21:15;8.13;;;3.28;;
74900;SDS011;63461;51.416;6.758;2023-07-13T21:23:42;6.88;;;2.40;;
74900;SDS011;63461;51.416;6.758;2023-07-13T21:26:08;8.32;;;3.35;;
74900;SDS011;63461;51.416;6.758;2023-07-13T21:28:37;8.38;;;3.35;;
74900;SDS011;63461;51.416;6.758;2023-07-13T21:31:05;6.28;;;3.03;;
74900;SDS011;63461;51.416;6.758;2023-07-13T21:33:33;6.43;;;3.08;;
74900;SDS011;63461;51.416;6.758;2023-07-13T21:36:01;6.20;;;3.17;;
74900;SDS011;63461;51.416;6.758;2023-07-13T21:38:35;7.80;;;3.38;;
74900;SDS011;63461;51.416;6.758;2023-07-13T21:41:14;7.05;;;3.03;;
74900;SDS011;63461;51.416;6.758;2023-07-13T21:43:51;5.80;;;3.10;;
74900;SDS011;63461;51.416;6.758;2023-07-13T21:46:16;5.82;;;2.88;;
74900;SDS011;63461;51.416;6.758;2023-07-13T21:48:43;9.45;;;2.95;;
74900;SDS011;63461;51.416;6.758;2023-07-13T21:51:14;13.70;;;3.22;;
74900;SDS011;63461;51.416;6.758;2023-07-13T21:53:45;8.73;;;3.33;;
74900;SDS011;63461;51.416;6.758;2023-07-13T21:56:12;6.57;;;3.33;;
74900;SDS011;63461;51.416;6.758;2023-07-13T21:58:39;5.53;;;2.88;;
74900;SDS011;63461;51.416;6.758;2023-07-13T22:01:10;9.15;;;2.75;;
74900;SDS011;63461;51.416;6.758;2023-07-13T22:03:43;6.40;;;3.05;;
74900;SDS011;63461;51.416;6.758;2023-07-13T22:06:24;4.70;;;2.63;;
74900;SDS011;63461;51.416;6.758;2023-07-13T22:08:52;7.20;;;2.67;;
74900;SDS011;63461;51.416;6.758;2023-07-13T22:11:20;5.78;;;3.03;;
74900;SDS011;63461;51.416;6.758;2023-07-13T22:13:48;6.18;;;2.50;;
74900;SDS011;63461;51.416;6.758;2023-07-13T22:18:46;6.15;;;2.58;;
74900;SDS011;63461;51.416;6.758;2023-07-13T22:21:13;5.35;;;2.42;;
74900;SDS011;63461;51.416;6.758;2023-07-13T22:23:40;7.25;;;2.80;;
74900;SDS011;63461;51.416;6.758;2023-07-13T22:28:58;8.57;;;2.95;;
74900;SDS011;63461;51.416;6.758;2023-07-13T22:31:25;5.97;;;2.60;;
74900;SDS011;63461;51.416;6.758;2023-07-13T22:33:56;8.73;;;2.90;;
74900;SDS011;63461;51.416;6.758;2023-07-13T22:36:22;6.97;;;2.63;;
74900;SDS011;63461;51.416;6.758;2023-07-13T22:38:48;9.13;;;3.20;;
74900;SDS011;63461;51.416;6.758;2023-07-13T22:41:15;5.05;;;2.85;;
74900;SDS011;63461;51.416;6.758;2023-07-13T22:43:43;8.07;;;3.17;;
74900;SDS011;63461;51.416;6.758;2023-07-13T22:46:14;7.45;;;2.92;;